createdAt,value
2023-03-06T00:15:43.609Z,12.71
2023-03-06T00:35:50.036Z,9.81
2023-03-06T00:55:56.105Z,12.47
2023-03-06T01:16:02.590Z,13.34
2023-03-06T01:36:09.712Z,15.35
2023-03-06T01:56:16.175Z,16.77
2023-03-06T02:16:34.805Z,16.76
2023-03-06T02:36:31.052Z,16.01
2023-03-06T02:56:38.617Z,17.88
2023-03-06T03:16:45.269Z,16.75
2023-03-06T03:36:51.138Z,18.83
2023-03-06T04:01:26.376Z,19.33
2023-03-06T04:17:02.134Z,17.29
2023-03-06T04:37:08.000Z,18.70
2023-03-06T04:57:13.830Z,18.52
2023-03-06T05:17:19.594Z,17.82
2023-03-06T05:37:25.406Z,20.59
2023-03-06T05:57:31.190Z,16.45
2023-03-06T06:17:37.004Z,17.85
2023-03-06T06:37:42.844Z,17.20
2023-03-06T06:57:48.699Z,16.78
2023-03-06T07:17:54.480Z,17.09
2023-03-06T07:38:00.288Z,17.72
2023-03-06T07:58:06.093Z,20.03
2023-03-06T08:18:11.907Z,18.10
2023-03-06T08:38:17.663Z,16.94
2023-03-06T08:58:23.414Z,18.37
2023-03-06T09:18:29.220Z,14.91
2023-03-06T09:38:35.114Z,14.73
2023-03-06T09:58:40.893Z,14.99
2023-03-06T10:18:46.721Z,14.00
2023-03-06T10:38:52.505Z,9.40
2023-03-06T10:58:58.303Z,7.18
2023-03-06T11:19:04.161Z,10.08
2023-03-06T11:39:09.915Z,9.56
2023-03-06T11:59:15.698Z,9.21
2023-03-06T12:19:21.452Z,8.40
2023-03-06T12:39:27.232Z,9.14
2023-03-06T12:59:33.040Z,6.70
2023-03-06T13:19:38.854Z,7.31
2023-03-06T13:39:45.084Z,6.52
2023-03-06T13:59:57.026Z,10.12
2023-03-06T14:19:56.216Z,5.71
2023-03-06T14:40:02.041Z,6.19
2023-03-06T15:00:07.806Z,7.95
2023-03-06T15:20:13.564Z,7.02
2023-03-06T15:40:19.276Z,6.91
2023-03-06T16:00:27.754Z,6.12
2023-03-06T16:20:30.300Z,7.55
2023-03-06T16:40:36.044Z,9.05
2023-03-06T17:00:41.829Z,7.76
2023-03-06T17:20:47.571Z,9.52
2023-03-06T17:40:53.286Z,9.53
2023-03-06T18:00:59.153Z,9.65
2023-03-06T18:21:05.305Z,11.85
2023-03-06T18:41:11.069Z,8.31
2023-03-06T19:01:22.480Z,8.97
2023-03-06T19:21:18.007Z,9.10
2023-03-06T19:41:23.951Z,9.40
2023-03-06T20:01:29.763Z,11.04
2023-03-06T20:21:35.450Z,10.35
2023-03-06T20:41:41.243Z,10.59
2023-03-06T21:01:47.204Z,10.31
2023-03-06T21:21:54.117Z,9.78
2023-03-06T21:41:59.870Z,10.03
2023-03-06T22:02:05.621Z,11.81
2023-03-06T22:22:11.447Z,10.90
2023-03-06T22:42:17.209Z,13.33
2023-03-06T23:02:22.972Z,10.69
2023-03-06T23:22:28.728Z,11.25
2023-03-06T23:42:34.492Z,10.04
